createdAt,value
2018-11-27T00:06:46.477Z,1.41
2018-11-27T00:17:04.640Z,1.34
2018-11-27T00:27:22.619Z,1.25
2018-11-27T00:37:41.274Z,1.21
2018-11-27T00:48:00.064Z,1.18
2018-11-27T00:58:22.219Z,1.18
2018-11-27T01:08:43.683Z,1.13
2018-11-27T01:19:04.183Z,1.11
2018-11-27T01:29:24.448Z,1.01
2018-11-27T01:39:43.318Z,0.84
2018-11-27T01:50:01.601Z,0.86
2018-11-27T02:00:30.981Z,1.14
2018-11-27T02:10:50.143Z,1.43
2018-11-27T02:21:08.223Z,1.36
2018-11-27T02:31:26.354Z,1.52
2018-11-27T02:41:44.621Z,1.36
2018-11-27T02:52:03.091Z,1.12
2018-11-27T03:02:21.840Z,1.12
2018-11-27T03:12:41.433Z,1.12
2018-11-27T03:23:00.340Z,1.01
2018-11-27T03:33:18.599Z,1.06
2018-11-27T03:43:38.089Z,1.27
2018-11-27T03:53:56.035Z,1.50
2018-11-27T04:04:16.078Z,1.59
2018-11-27T04:14:34.334Z,1.49
2018-11-27T04:24:52.407Z,1.54
2018-11-27T04:35:13.397Z,1.38
2018-11-27T04:45:31.448Z,1.32
2018-11-27T04:55:53.958Z,1.27
2018-11-27T05:06:12.242Z,1.26
2018-11-27T05:16:31.174Z,1.38
2018-11-27T05:26:53.482Z,1.31
2018-11-27T05:37:13.676Z,1.47
2018-11-27T05:47:32.756Z,1.36
2018-11-27T05:57:52.646Z,1.29
2018-11-27T06:08:11.584Z,1.25
2018-11-27T06:18:30.186Z,1.13
2018-11-27T06:28:50.627Z,1.17
2018-11-27T06:39:22.632Z,1.16
2018-11-27T06:49:43.993Z,1.33
2018-11-27T07:00:02.606Z,1.27
2018-11-27T07:10:31.359Z,1.33
2018-11-27T07:20:50.332Z,1.34
2018-11-27T07:31:10.228Z,1.50
2018-11-27T07:41:28.435Z,1.42
2018-11-27T07:51:47.613Z,1.38
2018-11-27T08:02:05.928Z,1.54
2018-11-27T08:12:24.270Z,1.61
2018-11-27T08:22:43.249Z,1.62
2018-11-27T08:33:02.289Z,1.64
2018-11-27T08:43:20.304Z,1.78
2018-11-27T08:53:38.469Z,1.85
2018-11-27T09:03:57.184Z,1.77
2018-11-27T09:14:15.987Z,1.88
2018-11-27T09:24:35.157Z,1.94
2018-11-27T09:34:54.069Z,1.83
2018-11-27T09:45:30.418Z,1.88
2018-11-27T09:55:48.599Z,1.85
2018-11-27T21:10:55.458Z,-1.04
2018-11-27T21:21:21.283Z,-0.43
2018-11-27T21:31:39.616Z,-0.04
2018-11-27T21:41:57.770Z,-0.12
2018-11-27T21:52:15.699Z,-0.19
2018-11-27T22:02:33.676Z,-0.31
2018-11-27T22:12:57.708Z,-0.26
2018-11-27T22:23:18.617Z,-0.29
2018-11-27T22:33:38.422Z,-0.38
2018-11-27T22:43:58.504Z,-0.55
2018-11-27T22:54:16.419Z,-0.51
2018-11-27T23:04:36.188Z,-0.53
2018-11-27T23:14:54.319Z,-0.68
2018-11-27T23:25:15.050Z,-0.80
2018-11-27T23:35:32.961Z,-0.61
2018-11-27T23:45:50.847Z,-0.78
2018-11-27T23:56:08.783Z,-0.90
